Latest Coastal Weather Observations for McCluer Island

IDD60701

Issued at 8:51 pm CST Saturday 13 February 2016 (issued every 10 minutes, with the page automatically refreshed every 10 minutes)

About coastal observations | Map of coastal stations | Coastal observations for NT | Marine services | Other Formats
Station Details ID: 014274 Name: MCCLUER ISLAND Lat: -11.05 Lon: 132.98 Height: 1.4 m
Data from the previous 72 hours. | See also: Recent months at McCluer Island
Date/Time
CST
Temp

°C
Wind Pressure Rain
since 9am
mm
Weather Cloud Vis
km
Sea
Height
m
Swell
Dir
 
Speed
knots
Gust
knots
hPa Trend Height
m
Period
s
Dir
13/08:30pm 28.7 W 8 9 1007.6 - 0.2 - - - - - - -
13/08:00pm 28.3 W 7 8 1007.2 - 0.2 - - - - - - -
13/07:30pm 28.5 SW 12 14 1007.4 - 0.2 - - - - - - -
13/07:00pm 29.1 SSW 10 14 1007.3 - 0.2 - - - - - - -
13/06:30pm 30.6 WSW 11 13 1007.3 - 0.2 - - - - - - -
13/06:00pm 30.5 WNW 12 14 1006.6 - 0.2 - - - - - - -
13/05:30pm 30.2 W 14 16 1006.5 - 0.2 - - - - - - -
13/05:00pm 31.2 W 12 14 1006.6 - 0.2 - - - - - - -
13/04:30pm 31.6 W 11 13 1006.3 - 0.2 - - - - - - -
13/04:00pm 31.6 W 11 12 1006.2 - 0.2 - - - - - - -
13/03:30pm 31.5 WNW 11 13 1006.4 - 0.2 - - - - - - -
13/03:00pm 31.0 WNW 12 14 1006.5 - 0.2 - - - - - - -
13/02:30pm 30.9 WNW 11 12 1006.7 - 0.2 - - - - - - -
13/02:00pm 30.4 W 9 12 1007.1 - 0.2 - - - - - - -
13/01:30pm 30.6 W 9 11 1007.2 - 0.2 - - - - - - -
13/01:00pm 30.4 WSW 8 11 1007.4 - 0.2 - - - - - - -
13/12:30pm 29.5 W 8 10 1007.4 - 0.2 - - - - - - -
13/12:00pm 29.4 W 7 9 1008.1 - 0.2 - - - - - - -
13/11:30am 29.6 W 5 7 1008.5 - 0.0 - - - - - - -
13/11:00am 29.1 W 6 7 1009.0 - 0.0 - - - - - - -
13/10:30am 28.5 W 7 9 1009.4 - 0.0 - - - - - - -
13/10:00am 28.1 WSW 10 11 1009.7 - 0.0 - - - - - - -
13/09:30am 28.0 WSW 10 11 1009.9 - 0.0 - - - - - - -
13/09:00am 27.6 SSE 5 8 1009.6 - 4.6 - - - - - - -
13/08:30am 26.8 ESE 5 6 1009.4 - 4.6 - - - - - - -
13/08:00am 26.5 E 4 5 1009.0 - 4.2 - - - - - - -
13/07:30am 26.2 ESE 5 6 1008.4 - 3.8 - - - - - - -
13/07:00am 26.3 SE 7 9 1008.4 - 3.0 - - - - - - -
13/06:30am 26.8 SE 8 11 1008.6 - 2.4 - - - - - - -
13/06:00am 27.0 SE 13 19 1008.2 - 0.2 - - - - - - -
13/05:30am 27.8 SSE 11 18 1007.6 - 0.0 - - - - - - -
13/05:00am 27.1 S 13 17 1006.9 - 0.0 - - - - - - -
13/04:30am 26.7 SSW 20 26 1006.7 - 0.0 - - - - - - -
13/04:00am 27.4 SSW 21 29 1006.7 - 0.0 - - - - - - -
13/03:58am 27.5 SSW 21 29 1006.6 - 0.0 - - - - - - -
13/03:53am 27.8 WSW 15 29 1006.7 - 0.0 - - - - - - -
13/03:30am 29.4 W 14 17 1006.2 - 0.0 - - - - - - -
13/03:00am 29.4 W 12 15 1006.3 - 0.0 - - - - - - -
13/02:30am 29.5 W 10 13 1006.4 - 0.0 - - - - - - -
13/02:00am 29.5 W 13 16 1006.6 - 0.0 - - - - - - -
13/01:30am 29.6 W 12 13 1007.1 - 0.0 - - - - - - -
13/01:00am 29.6 W 11 14 1007.7 - 0.0 - - - - - - -
13/12:30am 29.2 W 12 14 1007.8 - 0.0 - - - - - - -
13/12:00am 29.4 WNW 14 15 1007.6 - 0.0 - - - - - - -
 
Date/Time
CST
Temp

°C
Wind Pressure Rain
since 9am
mm
Weather Cloud Vis
km
Sea
Height
m
Swell
Dir
 
Speed
knots
Gust
knots
hPa Trend Height
m
Period
s
Dir
12/11:30pm 29.5 WNW 12 14 1008.1 - 0.0 - - - - - - -
12/11:00pm 29.6 WNW 11 13 1008.2 - 0.0 - - - - - - -
12/10:30pm 29.6 WNW 11 13 1008.0 - 0.0 - - - - - - -
12/10:00pm 29.6 W 11 12 1007.9 - 0.0 - - - - - - -
12/09:30pm 29.7 WNW 13 14 1007.8 - 0.0 - - - - - - -
12/09:00pm 29.7 W 12 15 1007.5 - 0.0 - - - - - - -
12/08:30pm 29.8 WNW 15 17 1007.2 - 0.0 - - - - - - -
12/08:00pm 29.9 W 13 15 1007.1 - 0.0 - - - - - - -
12/07:30pm 29.9 W 14 16 1006.8 - 0.0 - - - - - - -
12/07:00pm 29.9 W 14 17 1006.5 - 0.0 - - - - - - -
12/06:30pm 30.1 W 15 17 1006.2 - 0.0 - - - - - - -
12/06:00pm 30.5 W 14 15 1006.2 - 0.0 - - - - - - -
12/05:30pm 31.0 WNW 15 19 1005.7 - 0.0 - - - - - - -
12/05:00pm 31.1 WNW 17 19 1005.3 - 0.0 - - - - - - -
12/04:30pm 30.7 WNW 15 17 1005.2 - 0.0 - - - - - - -
12/04:00pm 31.1 WNW 15 18 1005.5 - 0.0 - - - - - - -
12/03:30pm 31.5 WNW 15 17 1005.8 - 0.0 - - - - - - -
12/03:00pm 31.4 WNW 12 14 1005.9 - 0.0 - - - - - - -
12/02:30pm 31.0 NW 8 10 1006.1 - 0.0 - - - - - - -
12/02:00pm 31.4 NW 10 11 1006.4 - 0.0 - - - - - - -
12/01:30pm 31.4 NW 10 13 1006.8 - 0.0 - - - - - - -
12/01:00pm 30.6 NW 7 8 1007.3 - 0.0 - - - - - - -
12/12:30pm 30.5 WNW 6 8 1007.7 - 0.0 - - - - - - -
12/12:00pm 31.1 NW 5 6 1007.8 - 0.0 - - - - - - -
12/11:30am 30.9 NW 8 9 1008.1 - 0.0 - - - - - - -
12/11:00am 30.8 NW 6 7 1008.2 - 0.0 - - - - - - -
12/10:30am 29.9 WNW 6 7 1008.6 - 0.0 - - - - - - -
12/10:00am 29.6 WSW 6 8 1009.0 - 0.0 - - - - - - -
12/09:30am 29.4 SSW 7 8 1008.9 - 0.0 - - - - - - -
12/09:00am 29.5 SSW 10 11 1008.9 - 0.0 - - - - - - -
12/08:30am 29.4 S 10 13 1009.0 - 0.0 - - - - - - -
12/08:00am 28.3 S 11 16 1008.7 - 0.0 - - - - - - -
12/07:30am 28.4 S 9 11 1008.4 - 0.0 - - - - - - -
12/07:00am 28.3 S 8 11 1008.0 - 0.0 - - - - - - -
12/06:30am 28.4 SW 11 13 1007.5 - 0.0 - - - - - - -
12/06:00am 28.3 SSW 10 12 1007.1 - 0.0 - - - - - - -
12/05:30am 28.5 SW 10 12 1006.8 - 0.0 - - - - - - -
12/05:00am 28.8 SW 9 11 1006.6 - 0.0 - - - - - - -
12/04:30am 29.3 W 13 15 1006.5 - 0.0 - - - - - - -
12/04:00am 29.4 W 12 14 1006.6 - 0.0 - - - - - - -
12/03:30am 29.2 W 12 15 1006.2 - 0.0 - - - - - - -
12/03:00am 29.2 WNW 13 15 1006.1 - 0.0 - - - - - - -
12/02:30am 29.2 WNW 13 15 1006.1 - 0.0 - - - - - - -
12/02:00am 29.3 W 12 15 1006.5 - 0.0 - - - - - - -
12/01:30am 29.1 WNW 12 15 1007.2 - 0.0 - - - - - - -
12/01:00am 29.0 WNW 11 13 1007.2 - 0.0 - - - - - - -
12/12:30am 29.0 NW 10 12 1007.3 - 0.0 - - - - - - -
12/12:00am 29.1 NW 10 11 1007.8 - 0.0 - - - - - - -
 
Date/Time
CST
Temp

°C
Wind Pressure Rain
since 9am
mm
Weather Cloud Vis
km
Sea
Height
m
Swell
Dir
 
Speed
knots
Gust
knots
hPa Trend Height
m
Period
s
Dir
11/11:30pm 29.0 WNW 11 12 1008.1 - 0.0 - - - - - - -
11/11:00pm 29.2 W 11 13 1008.0 - 0.0 - - - - - - -
11/10:30pm 29.3 WNW 10 12 1008.0 - 0.0 - - - - - - -
11/10:00pm 29.6 WNW 11 12 1007.6 - 0.0 - - - - - - -
11/09:30pm 29.4 NW 11 13 1007.1 - 0.0 - - - - - - -
11/09:00pm 29.3 NW 10 12 1006.8 - 0.0 - - - - - - -
11/08:30pm 29.1 NW 10 13 1006.7 - 0.0 - - - - - - -
11/08:00pm 29.6 WNW 11 13 1006.1 - 0.0 - - - - - - -
11/07:30pm 29.7 WNW 12 14 1005.6 - 0.0 - - - - - - -
11/07:00pm 29.7 WNW 13 15 1005.0 - 0.0 - - - - - - -
11/06:30pm 29.8 WNW 12 14 1004.9 - 0.0 - - - - - - -
11/06:00pm 29.3 NW 14 17 1004.8 - 0.0 - - - - - - -
11/05:30pm 30.2 NW 10 13 1004.5 - 0.0 - - - - - - -
11/05:00pm 30.6 NNW 9 11 1004.3 - 0.0 - - - - - - -
11/04:30pm 30.8 NW 11 13 1004.2 - 0.0 - - - - - - -
11/04:00pm 31.3 NW 8 10 1004.2 - 0.0 - - - - - - -
11/03:30pm 30.3 NW 14 18 1004.4 - 0.0 - - - - - - -
11/03:00pm 31.8 NW 12 14 1004.4 - 0.0 - - - - - - -
11/02:30pm 32.3 WNW 11 12 1004.7 - 0.0 - - - - - - -
11/02:00pm 32.3 WNW 10 11 1005.0 - 0.0 - - - - - - -
11/01:30pm 31.9 W 9 11 1005.5 - 0.0 - - - - - - -
11/01:00pm 31.5 W 9 11 1005.8 - 0.0 - - - - - - -
11/12:30pm 32.4 W 10 12 1006.1 - 0.0 - - - - - - -
11/12:00pm 31.3 W 9 11 1006.4 - 0.0 - - - - - - -
11/11:30am 31.1 WNW 6 10 1006.9 - 0.0 - - - - - - -
11/11:00am 30.8 NW 9 11 1006.6 - 0.0 - - - - - - -
11/10:30am 29.9 NW 10 12 1006.4 - 0.0 - - - - - - -
11/10:00am 29.3 WSW 13 18 1007.0 - 0.0 - - - - - - -
11/09:30am 29.0 WSW 10 12 1007.6 - 0.0 - - - - - - -
11/09:00am 28.8 SSW 9 12 1007.9 - 3.0 - - - - - - -
11/08:30am 29.0 WSW 11 13 1007.9 - 3.0 - - - - - - -
11/08:00am 28.7 WSW 10 13 1007.3 - 3.0 - - - - - - -
11/07:30am 28.4 SW 9 11 1006.8 - 3.0 - - - - - - -
11/07:00am 27.9 W 4 5 1006.8 - 3.0 - - - - - - -
11/06:30am 27.6 W 7 8 1006.5 - 3.0 - - - - - - -
11/06:00am 27.6 W 7 9 1006.8 - 3.0 - - - - - - -
11/05:30am 27.3 WSW 5 7 1006.7 - 3.0 - - - - - - -
11/05:00am 26.0 S 2 3 1006.3 - 3.0 - - - - - - -
11/04:30am 26.9 SSW 5 7 1006.1 - 3.0 - - - - - - -
11/04:00am 26.2 SW 7 9 1005.8 - 3.0 - - - - - - -
11/03:30am 27.3 W 11 13 1005.7 - 1.4 - - - - - - -
11/03:00am 27.0 W 15 19 1005.5 - 1.2 - - - - - - -
11/02:30am 27.5 SW 18 22 1006.2 - 1.2 - - - - - - -
11/02:00am 28.0 S 10 13 1006.5 - 1.2 - - - - - - -
11/01:30am 27.8 S 9 11 1006.9 - 1.2 - - - - - - -
11/01:00am 27.7 SSE 8 11 1007.2 - 1.2 - - - - - - -
11/12:30am 27.6 SSE 11 16 1007.9 - 1.2 - - - - - - -
11/12:00am 28.2 SE 6 8 1008.2 - 1.2 - - - - - - -
 
Date/Time
CST
Temp

°C
Wind Pressure Rain
since 9am
mm
Weather Cloud Vis
km
Sea
Height
m
Swell
Dir
 
Speed
knots
Gust
knots
hPa Trend Height
m
Period
s
Dir
10/11:30pm 27.8 SE 7 9 1008.3 - 1.2 - - - - - - -
10/11:00pm 28.4 SSE 10 16 1008.0 - 0.2 - - - - - - -
10/10:30pm 29.0 SSE 10 12 1008.2 - 0.0 - - - - - - -
10/10:00pm 29.5 WSW 7 9 1007.9 - 0.0 - - - - - - -
10/09:30pm 29.4 W 10 11 1007.2 - 0.0 - - - - - - -
10/09:00pm 29.3 W 10 11 1006.9 - 0.0 - - - - - - -

Other Formats:

Comma delimited format used in spreadsheet applications
http://www.bom.gov.au/fwo/IDD60701/IDD60701.94135.axf

JavaScript Object Notation format (JSON) in row-major order
http://www.bom.gov.au/fwo/IDD60701/IDD60701.94135.json